createdAt,value
2018-08-09T00:02:20.639Z,10.53
2018-08-09T00:04:47.817Z,10.57
2018-08-09T00:07:14.996Z,10.37
2018-08-09T00:09:42.135Z,10.43
2018-08-09T00:12:09.295Z,11.17
2018-08-09T00:14:36.389Z,10.80
2018-08-09T00:17:03.587Z,10.87
2018-08-09T00:19:30.793Z,9.93
2018-08-09T00:21:57.899Z,11.07
2018-08-09T00:24:25.055Z,10.53
2018-08-09T00:26:52.192Z,11.10
2018-08-09T00:29:19.378Z,10.00
2018-08-09T00:31:47.182Z,10.23
2018-08-09T00:34:14.310Z,10.30
2018-08-09T00:36:41.407Z,10.17
2018-08-09T00:39:10.884Z,10.30
2018-08-09T00:41:38.463Z,10.10
2018-08-09T00:44:05.629Z,9.40
2018-08-09T00:46:32.712Z,9.73
2018-08-09T00:48:59.839Z,8.83
2018-08-09T00:51:26.928Z,9.57
2018-08-09T00:53:54.067Z,9.13
2018-08-09T00:56:21.275Z,9.60
2018-08-09T00:58:48.351Z,8.70
2018-08-09T01:01:15.449Z,9.23
2018-08-09T01:03:42.592Z,8.60
2018-08-09T01:06:09.778Z,9.30
2018-08-09T01:08:37.013Z,9.13
2018-08-09T01:11:04.162Z,9.33
2018-08-09T01:13:31.242Z,8.63
2018-08-09T01:15:58.343Z,8.60
2018-08-09T01:18:25.536Z,8.83
2018-08-09T01:20:52.692Z,9.43
2018-08-09T01:23:19.771Z,9.30
2018-08-09T01:25:46.911Z,9.67
2018-08-09T01:28:14.016Z,9.43
2018-08-09T01:30:41.147Z,9.30
2018-08-09T01:33:08.368Z,9.30
2018-08-09T01:35:35.443Z,9.40
2018-08-09T01:38:02.524Z,9.77
2018-08-09T01:40:29.662Z,9.13
2018-08-09T01:43:08.299Z,8.80
2018-08-09T01:45:35.822Z,9.37
2018-08-09T01:48:02.980Z,9.47
2018-08-09T01:50:30.051Z,9.50
2018-08-09T01:52:57.526Z,10.43
2018-08-09T01:55:24.686Z,9.50
2018-08-09T01:57:51.845Z,10.03
2018-08-09T02:00:18.989Z,10.53
2018-08-09T02:02:46.077Z,10.77
2018-08-09T02:05:13.171Z,10.63
2018-08-09T02:07:42.991Z,10.43
2018-08-09T02:10:10.182Z,10.53
2018-08-09T02:12:37.263Z,11.37
2018-08-09T02:15:04.448Z,10.97
2018-08-09T02:17:31.570Z,11.63
2018-08-09T02:19:58.707Z,11.57
2018-08-09T02:22:26.237Z,11.67
2018-08-09T02:24:53.335Z,10.63
2018-08-09T02:27:20.414Z,12.17
2018-08-09T02:29:47.562Z,11.70
2018-08-09T02:32:14.707Z,11.90
2018-08-09T02:34:41.891Z,10.80
2018-08-09T02:37:09.067Z,11.13
2018-08-09T02:39:36.172Z,12.03
2018-08-09T02:42:03.270Z,13.17
2018-08-09T02:44:30.464Z,12.67
2018-08-09T02:46:57.618Z,12.00
2018-08-09T02:49:24.754Z,11.87
2018-08-09T02:51:51.895Z,12.23
2018-08-09T02:54:18.994Z,13.20
2018-08-09T02:56:46.147Z,13.40
2018-08-09T02:59:13.371Z,12.40
2018-08-09T03:01:40.451Z,12.47
2018-08-09T03:04:07.549Z,12.67
2018-08-09T03:06:34.760Z,12.80
2018-08-09T03:09:01.966Z,12.23
2018-08-09T03:11:29.111Z,13.60
2018-08-09T03:13:56.242Z,13.23
2018-08-09T03:16:23.357Z,13.50
2018-08-09T03:18:50.426Z,13.27
2018-08-09T03:21:17.606Z,14.13
2018-08-09T03:23:44.806Z,13.13
2018-08-09T03:26:11.888Z,14.27
2018-08-09T03:28:39.422Z,13.10
2018-08-09T03:31:06.542Z,14.03
2018-08-09T03:33:33.686Z,14.07
2018-08-09T03:36:01.007Z,15.37
2018-08-09T03:38:28.088Z,13.23
2018-08-09T03:40:55.182Z,14.10
2018-08-09T03:43:22.288Z,13.77
2018-08-09T03:45:49.426Z,13.80
2018-08-09T03:48:16.575Z,13.43
2018-08-09T03:50:43.800Z,14.23
2018-08-09T03:53:10.912Z,13.87
2018-08-09T03:55:37.983Z,14.17
2018-08-09T03:58:05.480Z,13.60
2018-08-09T04:00:33.058Z,13.87
2018-08-09T04:03:01.256Z,12.90
2018-08-09T04:05:28.380Z,14.27
2018-08-09T04:07:55.474Z,13.63
2018-08-09T04:10:22.627Z,14.13
2018-08-09T04:12:49.832Z,14.77
2018-08-09T04:15:16.943Z,13.90
2018-08-09T04:17:44.019Z,14.13
2018-08-09T04:20:11.163Z,15.30
2018-08-09T04:22:38.300Z,14.70
2018-08-09T04:25:05.476Z,13.23
2018-08-09T04:27:32.609Z,14.33
2018-08-09T04:29:59.716Z,15.17
2018-08-09T04:32:26.831Z,13.97
2018-08-09T04:34:54.008Z,13.50
2018-08-09T04:37:21.175Z,13.63
2018-08-09T04:39:48.264Z,13.67
2018-08-09T04:42:15.408Z,14.03
2018-08-09T04:44:42.509Z,14.07
2018-08-09T04:47:09.641Z,12.83
2018-08-09T04:49:36.834Z,14.03
2018-08-09T04:52:03.986Z,13.67
2018-08-09T04:54:31.093Z,12.83
2018-08-09T04:56:58.231Z,13.10
2018-08-09T04:59:25.414Z,13.47
2018-08-09T05:01:52.630Z,12.90
2018-08-09T05:04:19.770Z,13.03
2018-08-09T05:06:46.960Z,11.87
2018-08-09T05:09:14.056Z,10.83
2018-08-09T05:11:42.404Z,10.73
2018-08-09T05:14:09.735Z,11.20
2018-08-09T05:16:36.987Z,11.50
2018-08-09T05:19:04.370Z,10.83
2018-08-09T05:21:31.788Z,10.50
2018-08-09T05:23:58.947Z,11.10
2018-08-09T05:26:26.437Z,11.20
2018-08-09T05:28:53.591Z,10.63
2018-08-09T05:31:20.688Z,10.20
2018-08-09T05:33:48.335Z,9.63
2018-08-09T05:36:15.577Z,9.57
2018-08-09T05:38:42.782Z,9.10
2018-08-09T05:41:09.927Z,9.30
2018-08-09T05:43:37.052Z,9.13
2018-08-09T05:46:04.286Z,9.70
2018-08-09T05:48:31.852Z,9.37
2018-08-09T05:50:59.055Z,9.03
2018-08-09T05:53:26.499Z,8.37
2018-08-09T05:55:53.623Z,9.57
2018-08-09T05:58:20.718Z,8.63
2018-08-09T06:00:47.903Z,8.03
2018-08-09T06:03:15.701Z,9.40
2018-08-09T06:05:42.928Z,9.17
2018-08-09T06:08:09.998Z,8.30
2018-08-09T06:10:37.148Z,8.70
2018-08-09T06:13:04.351Z,7.57
2018-08-09T06:15:31.536Z,8.97
2018-08-09T06:17:58.971Z,7.67
2018-08-09T06:20:26.076Z,8.17
2018-08-09T06:22:53.175Z,7.97
2018-08-09T06:25:20.346Z,8.07
2018-08-09T06:27:47.545Z,7.50
2018-08-09T06:30:14.667Z,8.37
2018-08-09T06:32:41.796Z,8.00
2018-08-09T06:35:09.858Z,7.97
2018-08-09T06:37:37.444Z,7.87
2018-08-09T06:40:07.976Z,8.23
2018-08-09T06:42:35.080Z,8.13
2018-08-09T06:45:02.208Z,9.03
2018-08-09T06:47:29.332Z,7.43
2018-08-09T06:49:56.592Z,7.83
2018-08-09T06:52:23.784Z,7.73
2018-08-09T06:54:50.927Z,7.93
2018-08-09T06:59:51.932Z,7.90
2018-08-09T07:02:19.104Z,7.57
2018-08-09T07:04:46.261Z,7.63
2018-08-09T07:07:13.430Z,7.70
2018-08-09T07:09:40.531Z,8.30
2018-08-09T07:12:07.640Z,7.77
2018-08-09T07:14:35.220Z,7.70
2018-08-09T07:17:02.518Z,8.13
2018-08-09T07:19:29.601Z,7.77
2018-08-09T07:21:56.734Z,8.50
2018-08-09T07:24:23.844Z,8.90
2018-08-09T07:26:50.978Z,8.50
2018-08-09T07:29:18.175Z,8.43
2018-08-09T07:31:45.794Z,8.03
2018-08-09T07:34:12.907Z,8.10
2018-08-09T07:36:40.084Z,8.87
2018-08-09T07:39:08.292Z,8.53
2018-08-09T07:41:35.963Z,8.03
2018-08-09T07:44:03.510Z,8.57
2018-08-09T07:46:30.621Z,8.77
2018-08-09T07:48:57.739Z,8.13
2018-08-09T07:51:24.995Z,8.77
2018-08-09T07:53:52.180Z,9.00
2018-08-09T07:56:19.276Z,8.57
2018-08-09T07:58:46.420Z,8.87
2018-08-09T08:01:13.494Z,7.50
2018-08-09T08:03:40.665Z,8.20
2018-08-09T08:06:08.419Z,8.20
2018-08-09T08:08:35.553Z,8.63
2018-08-09T08:11:03.528Z,8.40
2018-08-09T08:13:31.407Z,8.20
2018-08-09T08:15:58.554Z,8.63
2018-08-09T08:18:25.714Z,8.30
2018-08-09T08:20:52.863Z,8.47
2018-08-09T08:23:19.961Z,8.93
2018-08-09T08:25:47.068Z,8.30
2018-08-09T08:28:14.275Z,8.23
2018-08-09T08:30:41.465Z,8.60
2018-08-09T08:33:08.565Z,8.30
2018-08-09T08:35:35.725Z,7.93
2018-08-09T08:38:02.869Z,8.30
2018-08-09T08:40:30.031Z,8.00
2018-08-09T08:42:57.236Z,8.47
2018-08-09T08:45:24.368Z,7.33
2018-08-09T08:47:51.463Z,7.70
2018-08-09T08:50:18.574Z,7.13
2018-08-09T08:52:45.721Z,7.80
2018-08-09T08:55:13.092Z,7.67
2018-08-09T08:57:40.210Z,7.13
2018-08-09T09:00:09.082Z,8.10
2018-08-09T09:02:36.481Z,8.20
2018-08-09T09:05:05.453Z,7.80
2018-08-09T09:07:32.578Z,8.20
2018-08-09T09:09:59.647Z,8.13
2018-08-09T09:12:26.825Z,7.87
2018-08-09T09:14:54.764Z,8.37
2018-08-09T09:17:21.929Z,7.63
2018-08-09T09:19:49.176Z,8.30
2018-08-09T09:22:16.286Z,7.43
2018-08-09T09:24:43.363Z,8.00
2018-08-09T09:27:10.498Z,7.93
2018-08-09T09:29:37.666Z,7.87
2018-08-09T09:32:04.933Z,8.03
2018-08-09T09:34:32.047Z,8.10
2018-08-09T09:36:59.155Z,8.07
2018-08-09T09:39:26.287Z,8.07
2018-08-09T09:41:53.466Z,8.33
2018-08-09T09:44:20.647Z,8.50
2018-08-09T09:46:47.743Z,8.20
2018-08-09T09:49:14.886Z,7.80
2018-08-09T09:51:41.985Z,8.57
2018-08-09T09:54:09.136Z,8.47
2018-08-09T09:56:36.750Z,8.27
2018-08-09T09:59:03.855Z,9.00
2018-08-09T10:01:32.989Z,8.40
2018-08-09T10:04:00.120Z,7.73
2018-08-09T10:06:27.300Z,8.20
2018-08-09T10:08:54.456Z,8.15
2018-08-09T10:11:21.586Z,8.30
2018-08-09T10:13:48.660Z,7.92
2018-08-09T10:16:15.776Z,8.30
2018-08-09T10:18:43.106Z,11.00
2018-08-09T10:21:10.264Z,8.30
2018-08-09T10:23:37.360Z,8.60
2018-08-09T10:26:04.491Z,7.95
2018-08-09T10:28:31.613Z,7.70
2018-08-09T10:30:58.816Z,7.95
2018-08-09T10:33:26.052Z,7.80
2018-08-09T10:35:53.152Z,8.33
2018-08-09T10:38:20.358Z,8.28
2018-08-09T10:40:47.524Z,7.70
2018-08-09T10:43:14.692Z,8.70
2018-08-09T10:45:41.852Z,8.05
2018-08-09T10:48:08.975Z,7.70
2018-08-09T10:50:36.083Z,8.23
2018-08-09T10:53:03.193Z,8.03
2018-08-09T10:55:30.398Z,8.68
2018-08-09T10:57:57.575Z,8.33
2018-08-09T11:00:24.696Z,7.92
2018-08-09T11:02:51.815Z,8.75
2018-08-09T11:05:18.968Z,8.75
2018-08-09T11:07:46.139Z,8.18
2018-08-09T11:10:13.343Z,8.98
2018-08-09T11:12:40.427Z,8.50
2018-08-09T11:15:09.005Z,8.48
2018-08-09T11:17:36.134Z,9.05
2018-08-09T11:20:04.301Z,8.58
2018-08-09T11:22:31.463Z,8.40
2018-08-09T11:24:58.631Z,8.60
2018-08-09T11:27:25.691Z,9.83
2018-08-09T11:29:52.785Z,8.00
2018-08-09T11:32:19.969Z,8.95
2018-08-09T11:34:47.118Z,8.83
2018-08-09T11:37:14.208Z,7.83
2018-08-09T11:39:41.389Z,8.23
2018-08-09T11:42:08.495Z,8.15
2018-08-09T11:44:35.631Z,8.30
2018-08-09T11:47:03.070Z,9.58
2018-08-09T11:49:31.375Z,8.40
2018-08-09T11:51:58.474Z,8.40
2018-08-09T11:54:25.652Z,8.50
2018-08-09T11:56:52.846Z,8.13
2018-08-09T11:59:20.024Z,8.50
2018-08-09T12:01:47.246Z,8.70
2018-08-09T12:04:14.348Z,8.40
2018-08-09T12:06:41.444Z,7.80
2018-08-09T12:09:09.768Z,8.68
2018-08-09T12:11:37.557Z,8.58
2018-08-09T12:14:05.341Z,8.75
2018-08-09T12:16:32.493Z,8.55
2018-08-09T12:18:59.615Z,8.43
2018-08-09T12:21:26.811Z,8.40
2018-08-09T12:23:54.408Z,7.40
2018-08-09T12:26:21.520Z,6.87
2018-08-09T12:28:48.648Z,7.28
2018-08-09T12:31:15.832Z,7.62
2018-08-09T12:33:43.027Z,6.95
2018-08-09T12:36:10.250Z,7.20
2018-08-09T12:38:37.366Z,6.85
2018-08-09T12:41:04.551Z,7.10
2018-08-09T12:43:31.667Z,7.60
2018-08-09T12:45:58.891Z,7.47
2018-08-09T12:48:26.037Z,7.40
2018-08-09T12:50:53.146Z,6.90
2018-08-09T12:53:20.392Z,6.92
2018-08-09T12:55:47.531Z,7.47
2018-08-09T12:58:14.730Z,7.50
2018-08-09T13:00:41.944Z,7.55
2018-08-09T13:03:09.103Z,6.70
2018-08-09T13:05:36.300Z,7.37
2018-08-09T13:08:03.575Z,7.25
2018-08-09T13:10:30.734Z,7.33
2018-08-09T13:12:57.910Z,6.75
2018-08-09T13:15:25.159Z,6.50
2018-08-09T13:17:52.256Z,6.22
2018-08-09T13:20:20.857Z,6.03
2018-08-09T13:22:49.390Z,6.37
2018-08-09T13:25:16.568Z,6.20
2018-08-09T13:27:43.741Z,6.40
2018-08-09T13:30:12.430Z,6.40
2018-08-09T13:32:39.856Z,6.03
2018-08-09T13:35:07.694Z,6.20
2018-08-09T13:37:34.928Z,6.58
2018-08-09T13:40:02.027Z,9.25
2018-08-09T13:42:29.168Z,6.28
2018-08-09T13:44:56.341Z,6.92
2018-08-09T13:47:23.546Z,6.45
2018-08-09T13:49:50.792Z,6.50
2018-08-09T13:52:17.958Z,6.83
2018-08-09T13:54:45.079Z,7.00
2018-08-09T13:57:13.061Z,6.90
2018-08-09T13:59:40.618Z,7.53
2018-08-09T14:02:07.860Z,7.10
2018-08-09T14:04:34.962Z,6.45
2018-08-09T14:07:02.107Z,6.53
2018-08-09T14:09:29.238Z,7.15
2018-08-09T14:11:56.481Z,6.95
2018-08-09T14:14:23.954Z,7.08
2018-08-09T14:16:51.068Z,6.08
2018-08-09T14:19:18.245Z,6.42
2018-08-09T14:21:45.369Z,6.72
2018-08-09T14:24:12.510Z,6.72
2018-08-09T14:26:39.769Z,6.83
2018-08-09T14:29:07.588Z,7.22
2018-08-09T14:31:35.216Z,6.55
2018-08-09T14:34:02.607Z,6.37
2018-08-09T14:36:29.828Z,6.75
2018-08-09T14:38:57.056Z,7.03
2018-08-09T14:41:24.168Z,6.33
2018-08-09T14:43:52.211Z,6.42
2018-08-09T14:46:19.340Z,6.67
2018-08-09T14:48:46.530Z,6.28
2018-08-09T14:51:13.793Z,7.40
2018-08-09T14:53:40.959Z,7.08
2018-08-09T14:56:08.102Z,6.12
2018-08-09T14:58:35.293Z,7.05
2018-08-09T15:01:02.508Z,7.03
2018-08-09T15:03:29.820Z,7.28
2018-08-09T15:05:57.320Z,7.50
2018-08-09T15:08:24.456Z,7.03
2018-08-09T15:10:51.578Z,7.08
2018-08-09T15:13:18.796Z,7.30
2018-08-09T15:15:46.272Z,7.03
2018-08-09T15:18:13.400Z,7.17
2018-08-09T15:20:40.573Z,7.25
2018-08-09T15:23:08.648Z,7.65
2018-08-09T15:25:35.910Z,7.67
2018-08-09T15:28:03.423Z,7.47
2018-08-09T15:30:30.708Z,6.97
2018-08-09T15:32:57.869Z,7.05
2018-08-09T15:35:25.107Z,7.15
2018-08-09T15:37:52.350Z,7.17
2018-08-09T15:40:19.532Z,6.70
2018-08-09T15:42:46.720Z,7.15
2018-08-09T15:45:14.883Z,6.80
2018-08-09T15:47:42.302Z,6.47
2018-08-09T15:50:11.437Z,6.70
2018-08-09T15:52:38.609Z,6.72
2018-08-09T15:55:05.856Z,6.67
2018-08-09T15:57:33.055Z,6.72
2018-08-09T16:00:00.236Z,6.75
2018-08-09T16:02:27.472Z,6.62
2018-08-09T16:04:54.693Z,7.50
2018-08-09T16:07:21.835Z,6.62
2018-08-09T16:09:48.922Z,6.67
2018-08-09T16:12:16.092Z,6.85
2018-08-09T16:14:43.268Z,6.85
2018-08-09T16:17:10.502Z,6.75
2018-08-09T16:19:37.717Z,6.25
2018-08-09T16:22:04.835Z,6.62
2018-08-09T16:24:31.990Z,6.90
2018-08-09T16:26:59.216Z,6.17
2018-08-09T16:29:26.725Z,6.72
2018-08-09T16:31:53.873Z,6.60
2018-08-09T16:34:21.061Z,7.08
2018-08-09T16:36:48.209Z,6.75
2018-08-09T16:39:15.391Z,6.93
2018-08-09T16:41:42.667Z,6.65
2018-08-09T16:44:10.555Z,6.65
2018-08-09T16:46:37.699Z,6.72
2018-08-09T16:49:05.039Z,7.00
2018-08-09T16:51:32.224Z,6.83
2018-08-09T16:53:59.432Z,6.92
2018-08-09T16:56:26.615Z,6.87
2018-08-09T16:58:53.721Z,6.87
2018-08-09T17:01:20.842Z,7.30
2018-08-09T17:03:48.068Z,6.67
2018-08-09T17:06:15.279Z,7.15
2018-08-09T17:08:42.360Z,7.00
2018-08-09T17:11:09.507Z,7.00
2018-08-09T17:13:36.647Z,7.63
2018-08-09T17:16:03.861Z,6.60
2018-08-09T17:18:31.341Z,6.80
2018-08-09T17:20:58.549Z,7.57
2018-08-09T17:23:25.676Z,7.00
2018-08-09T17:25:52.843Z,7.40
2018-08-09T17:28:20.033Z,7.47
2018-08-09T17:30:47.257Z,6.93
2018-08-09T17:33:14.424Z,7.17
2018-08-09T17:35:41.599Z,7.33
2018-08-09T17:38:08.696Z,6.97
2018-08-09T17:40:36.209Z,7.60
2018-08-09T17:43:04.019Z,8.37
2018-08-09T17:45:32.631Z,7.77
2018-08-09T17:48:00.136Z,8.00
2018-08-09T17:50:27.291Z,7.43
2018-08-09T17:52:55.865Z,8.13
2018-08-09T17:55:23.092Z,7.40
2018-08-09T17:57:50.213Z,8.13
2018-08-09T18:00:21.656Z,7.67
2018-08-09T18:02:49.056Z,7.73
2018-08-09T18:05:16.255Z,8.13
2018-08-09T18:07:43.607Z,7.60
2018-08-09T18:10:14.319Z,7.30
2018-08-09T18:12:41.553Z,7.07
2018-08-09T18:15:09.777Z,7.17
2018-08-09T18:17:37.054Z,7.30
2018-08-09T18:20:10.593Z,7.37
2018-08-09T18:22:37.764Z,7.17
2018-08-09T18:25:07.023Z,6.93
2018-08-09T18:27:34.204Z,7.20
2018-08-09T18:30:01.483Z,6.77
2018-08-09T19:02:57.204Z,6.90
2018-08-09T19:09:12.011Z,8.27
2018-08-09T19:11:39.225Z,10.30
2018-08-09T19:14:06.530Z,9.57
2018-08-09T19:16:33.676Z,9.37
2018-08-09T19:19:00.857Z,7.97
2018-08-09T19:21:28.065Z,7.70
2018-08-09T19:23:56.430Z,7.73
2018-08-09T19:26:23.785Z,6.90
2018-08-09T19:28:51.048Z,7.73
2018-08-09T19:31:18.302Z,7.50
2018-08-09T19:33:45.492Z,7.77
2018-08-09T19:36:12.711Z,7.57
2018-08-09T19:38:40.150Z,7.13
2018-08-09T19:41:07.477Z,7.53
2018-08-09T19:43:34.591Z,7.90
2018-08-09T19:46:01.879Z,7.43
2018-08-09T19:48:29.178Z,7.37
2018-08-09T19:50:56.484Z,6.87
2018-08-09T19:53:23.998Z,6.80
2018-08-09T19:55:51.289Z,7.73
2018-08-09T19:58:18.521Z,6.30
2018-08-09T20:00:45.732Z,6.90
2018-08-09T20:03:13.102Z,7.17
2018-08-09T20:05:40.214Z,7.47
2018-08-09T20:08:07.372Z,8.43
2018-08-09T20:10:34.536Z,7.23
2018-08-09T20:13:01.796Z,7.47
2018-08-09T20:15:30.276Z,7.27
2018-08-09T20:17:57.458Z,7.73
2018-08-09T20:20:25.646Z,7.87
2018-08-09T20:22:53.055Z,8.87
2018-08-09T20:25:20.247Z,7.83
2018-08-09T20:27:47.584Z,8.73
2018-08-09T20:30:15.720Z,8.30
2018-08-09T20:32:43.363Z,8.73
2018-08-09T20:35:13.540Z,9.10
2018-08-09T20:37:41.722Z,9.73
2018-08-09T20:40:09.842Z,11.13
2018-08-09T20:42:37.292Z,10.83
2018-08-09T20:45:05.881Z,15.07
2018-08-09T20:47:33.148Z,14.80
2018-08-09T20:50:00.314Z,14.30
2018-08-09T20:52:27.676Z,14.60
2018-08-09T20:54:54.869Z,14.90
2018-08-09T20:57:22.071Z,14.27
2018-08-09T20:59:49.262Z,15.37
2018-08-09T21:02:16.416Z,15.50
2018-08-09T21:04:43.748Z,14.00
2018-08-09T21:07:10.905Z,16.20
2018-08-09T21:09:38.123Z,18.30
2018-08-09T21:12:05.325Z,19.40
2018-08-09T21:14:32.693Z,18.20
2018-08-09T21:17:00.051Z,18.87
2018-08-09T21:19:27.250Z,23.07
2018-08-09T21:21:54.826Z,24.20
2018-08-09T21:24:21.966Z,19.10
2018-08-09T21:26:49.135Z,18.83
2018-08-09T21:29:16.515Z,20.37
2018-08-09T21:31:50.173Z,18.93
2018-08-09T21:34:17.372Z,18.90
2018-08-09T21:36:44.483Z,20.00
2018-08-09T21:39:13.158Z,17.83
2018-08-09T21:41:40.839Z,18.67
2018-08-09T21:44:07.980Z,18.30
2018-08-09T21:46:35.128Z,17.10
2018-08-09T21:49:02.303Z,16.80
2018-08-09T21:51:29.436Z,17.70
2018-08-09T21:53:56.733Z,16.70
2018-08-09T21:56:23.928Z,17.60
2018-08-09T21:58:51.054Z,16.60
2018-08-09T22:01:18.187Z,17.27
2018-08-09T22:03:45.343Z,15.17
2018-08-09T22:06:19.167Z,15.50
2018-08-09T22:08:52.084Z,14.57
2018-08-09T22:11:25.007Z,14.33
2018-08-09T22:13:57.796Z,14.83
2018-08-09T22:16:31.676Z,14.83
2018-08-09T22:19:04.551Z,14.40
2018-08-09T22:21:37.396Z,14.07
2018-08-09T22:24:04.615Z,14.97
2018-08-09T22:26:31.943Z,16.50
2018-08-09T22:28:59.132Z,15.83
2018-08-09T22:31:26.342Z,15.70
2018-08-09T22:33:53.756Z,16.47
2018-08-09T22:36:20.955Z,19.10
2018-08-09T22:38:48.254Z,17.73
2018-08-09T22:41:15.369Z,18.60
2018-08-09T22:43:42.518Z,19.07
2018-08-09T22:46:09.725Z,20.23
2018-08-09T22:48:36.881Z,20.77
2018-08-09T22:51:04.380Z,18.63
2018-08-09T22:53:31.568Z,19.17
2018-08-09T22:55:58.729Z,18.93
2018-08-09T22:58:25.877Z,18.50
2018-08-09T23:00:53.041Z,19.07
2018-08-09T23:03:20.324Z,17.40
2018-08-09T23:05:47.515Z,17.33
2018-08-09T23:08:15.474Z,17.33
2018-08-09T23:10:43.370Z,17.33
2018-08-09T23:13:11.371Z,18.73
2018-08-09T23:15:57.511Z,19.47
2018-08-09T23:18:24.662Z,20.17
2018-08-09T23:20:51.801Z,19.93
2018-08-09T23:23:19.043Z,19.63
2018-08-09T23:25:46.289Z,19.50
2018-08-09T23:28:13.509Z,18.97
2018-08-09T23:30:40.739Z,19.20
2018-08-09T23:33:07.887Z,18.20
2018-08-09T23:35:35.057Z,18.03
2018-08-09T23:38:02.379Z,17.90
2018-08-09T23:40:29.626Z,17.27
2018-08-09T23:42:56.809Z,17.13
2018-08-09T23:45:24.971Z,17.27
2018-08-09T23:47:52.105Z,16.70
2018-08-09T23:50:19.320Z,16.83
2018-08-09T23:52:46.580Z,16.90
2018-08-09T23:55:16.065Z,14.93
2018-08-09T23:57:43.371Z,15.23
